Terminal Aerodrome Forecast
Issued by NWS

Home | Current Version | Previous Version | Text Only | Print | Product List | Glossary On
Versions: 1 2 3 4 5 6 7 8 9 10 11 12 13 14
397
FTUS45 KPIH 281724
TAFSUN
TAF
KSUN 281724Z 2818/2918 15010KT P6SM FEW080
     FM282100 22013G20KT P6SM FEW080
     FM290300 33011KT P6SM SKC=

USA.gov is the U.S. government's official web portal to all federal, state and local government web resources and services.